sensor_id;sensor_type;location;lat;lon;timestamp;P1;durP1;ratioP1;P2;durP2;ratioP2
66741;SDS011;53654;54.152;19.432;2023-06-10T00:00:05;6.80;;;3.00;;
66741;SDS011;53654;54.152;19.432;2023-06-10T00:03:00;6.40;;;3.30;;
66741;SDS011;53654;54.152;19.432;2023-06-10T00:05:29;5.30;;;3.00;;
66741;SDS011;53654;54.152;19.432;2023-06-10T00:07:59;5.70;;;3.20;;
66741;SDS011;53654;54.152;19.432;2023-06-10T00:10:27;7.00;;;3.20;;
66741;SDS011;53654;54.152;19.432;2023-06-10T00:12:55;6.40;;;3.10;;
66741;SDS011;53654;54.152;19.432;2023-06-10T00:15:23;6.60;;;3.00;;
66741;SDS011;53654;54.152;19.432;2023-06-10T00:17:52;5.70;;;3.10;;
66741;SDS011;53654;54.152;19.432;2023-06-10T00:20:21;5.90;;;3.20;;
66741;SDS011;53654;54.152;19.432;2023-06-10T00:22:52;4.80;;;3.00;;
66741;SDS011;53654;54.152;19.432;2023-06-10T00:25:21;4.20;;;2.80;;
66741;SDS011;53654;54.152;19.432;2023-06-10T00:27:49;6.00;;;2.90;;
66741;SDS011;53654;54.152;19.432;2023-06-10T00:30:17;5.70;;;3.20;;
66741;SDS011;53654;54.152;19.432;2023-06-10T00:32:45;5.50;;;3.00;;
66741;SDS011;53654;54.152;19.432;2023-06-10T00:35:13;5.10;;;2.80;;
66741;SDS011;53654;54.152;19.432;2023-06-10T00:37:42;5.10;;;3.00;;
66741;SDS011;53654;54.152;19.432;2023-06-10T00:40:10;5.30;;;2.80;;
66741;SDS011;53654;54.152;19.432;2023-06-10T00:42:38;4.60;;;2.60;;
66741;SDS011;53654;54.152;19.432;2023-06-10T00:45:07;3.90;;;2.60;;
66741;SDS011;53654;54.152;19.432;2023-06-10T00:47:36;6.90;;;3.00;;
66741;SDS011;53654;54.152;19.432;2023-06-10T00:50:05;4.30;;;2.80;;
66741;SDS011;53654;54.152;19.432;2023-06-10T00:52:34;5.90;;;2.90;;
66741;SDS011;53654;54.152;19.432;2023-06-10T00:55:04;4.70;;;2.70;;
66741;SDS011;53654;54.152;19.432;2023-06-10T00:57:33;3.60;;;2.60;;
66741;SDS011;53654;54.152;19.432;2023-06-10T01:00:02;6.30;;;3.00;;
66741;SDS011;53654;54.152;19.432;2023-06-10T01:02:35;5.30;;;2.70;;
66741;SDS011;53654;54.152;19.432;2023-06-10T01:05:04;6.20;;;2.70;;
66741;SDS011;53654;54.152;19.432;2023-06-10T01:07:34;4.00;;;2.70;;
66741;SDS011;53654;54.152;19.432;2023-06-10T01:10:06;4.30;;;2.90;;
66741;SDS011;53654;54.152;19.432;2023-06-10T01:12:59;5.10;;;3.10;;
66741;SDS011;53654;54.152;19.432;2023-06-10T01:15:34;5.10;;;3.20;;
66741;SDS011;53654;54.152;19.432;2023-06-10T01:18:06;7.10;;;3.20;;
66741;SDS011;53654;54.152;19.432;2023-06-10T01:20:57;4.80;;;2.80;;
66741;SDS011;53654;54.152;19.432;2023-06-10T01:23:25;4.60;;;2.90;;
66741;SDS011;53654;54.152;19.432;2023-06-10T01:26:02;5.60;;;2.90;;
66741;SDS011;53654;54.152;19.432;2023-06-10T01:28:36;5.40;;;2.90;;
66741;SDS011;53654;54.152;19.432;2023-06-10T01:31:19;3.80;;;3.00;;
66741;SDS011;53654;54.152;19.432;2023-06-10T01:34:02;5.80;;;3.10;;
66741;SDS011;53654;54.152;19.432;2023-06-10T01:36:35;4.10;;;2.90;;
66741;SDS011;53654;54.152;19.432;2023-06-10T01:39:07;3.90;;;2.80;;
66741;SDS011;53654;54.152;19.432;2023-06-10T01:41:37;5.80;;;3.00;;
66741;SDS011;53654;54.152;19.432;2023-06-10T01:44:09;5.70;;;2.80;;
66741;SDS011;53654;54.152;19.432;2023-06-10T01:46:40;6.30;;;2.90;;
66741;SDS011;53654;54.152;19.432;2023-06-10T01:49:08;6.50;;;2.80;;
66741;SDS011;53654;54.152;19.432;2023-06-10T01:51:36;5.80;;;3.10;;
66741;SDS011;53654;54.152;19.432;2023-06-10T01:54:04;5.10;;;2.80;;
66741;SDS011;53654;54.152;19.432;2023-06-10T01:56:33;5.30;;;2.80;;
66741;SDS011;53654;54.152;19.432;2023-06-10T01:59:02;6.10;;;2.90;;
66741;SDS011;53654;54.152;19.432;2023-06-10T02:01:31;4.60;;;3.00;;
66741;SDS011;53654;54.152;19.432;2023-06-10T02:03:59;6.60;;;3.10;;
66741;SDS011;53654;54.152;19.432;2023-06-10T02:06:27;5.00;;;2.90;;
66741;SDS011;53654;54.152;19.432;2023-06-10T02:08:55;4.00;;;3.00;;
66741;SDS011;53654;54.152;19.432;2023-06-10T02:11:23;4.70;;;2.80;;
66741;SDS011;53654;54.152;19.432;2023-06-10T02:13:52;4.70;;;2.90;;
66741;SDS011;53654;54.152;19.432;2023-06-10T02:16:20;5.00;;;3.00;;
66741;SDS011;53654;54.152;19.432;2023-06-10T02:18:49;6.20;;;2.80;;
66741;SDS011;53654;54.152;19.432;2023-06-10T02:21:17;5.60;;;3.20;;
66741;SDS011;53654;54.152;19.432;2023-06-10T02:23:45;5.20;;;3.10;;
66741;SDS011;53654;54.152;19.432;2023-06-10T02:26:14;4.20;;;2.70;;
66741;SDS011;53654;54.152;19.432;2023-06-10T02:28:43;3.70;;;3.10;;
66741;SDS011;53654;54.152;19.432;2023-06-10T02:31:13;4.40;;;3.00;;
66741;SDS011;53654;54.152;19.432;2023-06-10T02:33:41;6.90;;;3.10;;
66741;SDS011;53654;54.152;19.432;2023-06-10T02:36:10;6.80;;;3.00;;
66741;SDS011;53654;54.152;19.432;2023-06-10T02:38:43;6.80;;;3.20;;
66741;SDS011;53654;54.152;19.432;2023-06-10T02:41:12;3.90;;;2.80;;
66741;SDS011;53654;54.152;19.432;2023-06-10T02:43:41;6.60;;;2.90;;
66741;SDS011;53654;54.152;19.432;2023-06-10T02:46:09;7.00;;;3.00;;
66741;SDS011;53654;54.152;19.432;2023-06-10T02:48:44;4.10;;;2.90;;
66741;SDS011;53654;54.152;19.432;2023-06-10T02:51:16;6.40;;;3.40;;
66741;SDS011;53654;54.152;19.432;2023-06-10T02:53:47;5.20;;;3.00;;
66741;SDS011;53654;54.152;19.432;2023-06-10T02:56:16;3.10;;;2.80;;
66741;SDS011;53654;54.152;19.432;2023-06-10T02:58:44;4.60;;;2.90;;
66741;SDS011;53654;54.152;19.432;2023-06-10T03:01:14;6.80;;;2.90;;
66741;SDS011;53654;54.152;19.432;2023-06-10T03:04:04;6.30;;;3.00;;
66741;SDS011;53654;54.152;19.432;2023-06-10T03:06:34;5.10;;;3.00;;
66741;SDS011;53654;54.152;19.432;2023-06-10T03:09:23;3.80;;;2.90;;
66741;SDS011;53654;54.152;19.432;2023-06-10T03:11:53;5.30;;;2.90;;
66741;SDS011;53654;54.152;19.432;2023-06-10T03:14:22;5.50;;;2.80;;
66741;SDS011;53654;54.152;19.432;2023-06-10T03:16:50;5.40;;;2.70;;
66741;SDS011;53654;54.152;19.432;2023-06-10T03:19:19;5.20;;;2.70;;
66741;SDS011;53654;54.152;19.432;2023-06-10T03:21:57;5.20;;;2.80;;
66741;SDS011;53654;54.152;19.432;2023-06-10T03:24:37;5.30;;;2.70;;
66741;SDS011;53654;54.152;19.432;2023-06-10T03:27:09;4.50;;;2.90;;
66741;SDS011;53654;54.152;19.432;2023-06-10T03:29:39;4.50;;;2.80;;
66741;SDS011;53654;54.152;19.432;2023-06-10T03:32:08;3.90;;;2.70;;
66741;SDS011;53654;54.152;19.432;2023-06-10T03:34:37;4.80;;;2.90;;
66741;SDS011;53654;54.152;19.432;2023-06-10T03:37:06;4.90;;;2.80;;
66741;SDS011;53654;54.152;19.432;2023-06-10T03:39:35;4.80;;;3.00;;
66741;SDS011;53654;54.152;19.432;2023-06-10T03:42:03;6.80;;;3.10;;
66741;SDS011;53654;54.152;19.432;2023-06-10T03:44:32;4.70;;;2.90;;
66741;SDS011;53654;54.152;19.432;2023-06-10T03:47:01;5.70;;;2.80;;
66741;SDS011;53654;54.152;19.432;2023-06-10T03:49:30;5.20;;;2.90;;
66741;SDS011;53654;54.152;19.432;2023-06-10T03:52:00;4.70;;;2.80;;
66741;SDS011;53654;54.152;19.432;2023-06-10T03:54:29;5.00;;;2.60;;
66741;SDS011;53654;54.152;19.432;2023-06-10T03:57:00;3.70;;;2.70;;
66741;SDS011;53654;54.152;19.432;2023-06-10T03:59:28;3.80;;;2.60;;
66741;SDS011;53654;54.152;19.432;2023-06-10T04:01:57;5.20;;;2.80;;
66741;SDS011;53654;54.152;19.432;2023-06-10T04:04:25;3.20;;;2.80;;
66741;SDS011;53654;54.152;19.432;2023-06-10T04:06:53;3.80;;;2.70;;
66741;SDS011;53654;54.152;19.432;2023-06-10T04:09:22;4.60;;;2.60;;
66741;SDS011;53654;54.152;19.432;2023-06-10T04:11:51;4.50;;;2.80;;
66741;SDS011;53654;54.152;19.432;2023-06-10T04:14:19;5.00;;;2.50;;
66741;SDS011;53654;54.152;19.432;2023-06-10T04:16:47;7.10;;;2.70;;
66741;SDS011;53654;54.152;19.432;2023-06-10T04:19:17;4.50;;;2.90;;
66741;SDS011;53654;54.152;19.432;2023-06-10T04:21:45;3.80;;;2.80;;
66741;SDS011;53654;54.152;19.432;2023-06-10T04:24:14;2.90;;;2.50;;
66741;SDS011;53654;54.152;19.432;2023-06-10T04:26:43;4.50;;;2.80;;
66741;SDS011;53654;54.152;19.432;2023-06-10T04:29:11;5.60;;;2.70;;
66741;SDS011;53654;54.152;19.432;2023-06-10T04:31:40;5.80;;;2.80;;
66741;SDS011;53654;54.152;19.432;2023-06-10T04:34:09;3.50;;;2.70;;
66741;SDS011;53654;54.152;19.432;2023-06-10T04:36:37;3.90;;;2.80;;
66741;SDS011;53654;54.152;19.432;2023-06-10T04:39:06;4.20;;;2.70;;
66741;SDS011;53654;54.152;19.432;2023-06-10T04:41:34;5.80;;;2.80;;
66741;SDS011;53654;54.152;19.432;2023-06-10T04:44:03;4.60;;;2.90;;
66741;SDS011;53654;54.152;19.432;2023-06-10T04:46:32;3.60;;;2.50;;
66741;SDS011;53654;54.152;19.432;2023-06-10T04:49:01;3.70;;;2.50;;
66741;SDS011;53654;54.152;19.432;2023-06-10T04:51:29;5.50;;;2.80;;
66741;SDS011;53654;54.152;19.432;2023-06-10T04:53:57;3.50;;;2.80;;
66741;SDS011;53654;54.152;19.432;2023-06-10T04:56:26;4.30;;;2.80;;
66741;SDS011;53654;54.152;19.432;2023-06-10T04:58:54;4.20;;;2.80;;
66741;SDS011;53654;54.152;19.432;2023-06-10T05:01:23;5.50;;;2.80;;
66741;SDS011;53654;54.152;19.432;2023-06-10T05:03:51;4.20;;;2.90;;
66741;SDS011;53654;54.152;19.432;2023-06-10T05:06:19;3.30;;;3.00;;
66741;SDS011;53654;54.152;19.432;2023-06-10T05:08:48;4.00;;;2.70;;
66741;SDS011;53654;54.152;19.432;2023-06-10T05:11:16;3.40;;;2.70;;
66741;SDS011;53654;54.152;19.432;2023-06-10T05:13:44;4.10;;;2.80;;
66741;SDS011;53654;54.152;19.432;2023-06-10T05:16:12;4.10;;;2.50;;
66741;SDS011;53654;54.152;19.432;2023-06-10T05:18:42;3.90;;;2.80;;
66741;SDS011;53654;54.152;19.432;2023-06-10T05:21:11;4.20;;;2.40;;
66741;SDS011;53654;54.152;19.432;2023-06-10T05:23:39;3.00;;;2.50;;
66741;SDS011;53654;54.152;19.432;2023-06-10T05:26:08;4.50;;;2.50;;
66741;SDS011;53654;54.152;19.432;2023-06-10T05:28:36;3.30;;;2.60;;
66741;SDS011;53654;54.152;19.432;2023-06-10T05:31:05;3.10;;;2.50;;
66741;SDS011;53654;54.152;19.432;2023-06-10T05:33:33;3.20;;;2.70;;
66741;SDS011;53654;54.152;19.432;2023-06-10T05:36:02;5.20;;;2.50;;
66741;SDS011;53654;54.152;19.432;2023-06-10T05:38:30;3.60;;;2.60;;
66741;SDS011;53654;54.152;19.432;2023-06-10T05:40:58;3.70;;;2.70;;
66741;SDS011;53654;54.152;19.432;2023-06-10T05:43:27;4.20;;;2.50;;
66741;SDS011;53654;54.152;19.432;2023-06-10T05:45:55;2.90;;;2.40;;
66741;SDS011;53654;54.152;19.432;2023-06-10T05:48:23;4.80;;;2.50;;
66741;SDS011;53654;54.152;19.432;2023-06-10T05:50:51;3.00;;;2.40;;
66741;SDS011;53654;54.152;19.432;2023-06-10T05:53:19;3.90;;;2.50;;
66741;SDS011;53654;54.152;19.432;2023-06-10T05:55:47;4.80;;;2.60;;
66741;SDS011;53654;54.152;19.432;2023-06-10T05:58:16;3.50;;;2.60;;
66741;SDS011;53654;54.152;19.432;2023-06-10T06:00:44;4.50;;;2.50;;
66741;SDS011;53654;54.152;19.432;2023-06-10T06:03:13;3.80;;;2.50;;
66741;SDS011;53654;54.152;19.432;2023-06-10T06:05:41;4.00;;;2.50;;
66741;SDS011;53654;54.152;19.432;2023-06-10T06:08:09;2.80;;;2.30;;
66741;SDS011;53654;54.152;19.432;2023-06-10T06:10:38;3.80;;;2.60;;
66741;SDS011;53654;54.152;19.432;2023-06-10T06:13:06;2.70;;;2.50;;
66741;SDS011;53654;54.152;19.432;2023-06-10T06:15:34;3.30;;;2.70;;
66741;SDS011;53654;54.152;19.432;2023-06-10T06:18:02;2.60;;;2.30;;
66741;SDS011;53654;54.152;19.432;2023-06-10T06:20:31;3.00;;;2.20;;
66741;SDS011;53654;54.152;19.432;2023-06-10T06:22:59;4.30;;;2.40;;
66741;SDS011;53654;54.152;19.432;2023-06-10T06:25:27;4.20;;;2.60;;
66741;SDS011;53654;54.152;19.432;2023-06-10T06:27:55;5.50;;;2.60;;
66741;SDS011;53654;54.152;19.432;2023-06-10T06:30:23;3.00;;;2.30;;
66741;SDS011;53654;54.152;19.432;2023-06-10T06:32:51;2.60;;;2.30;;
66741;SDS011;53654;54.152;19.432;2023-06-10T06:35:19;2.90;;;2.50;;
66741;SDS011;53654;54.152;19.432;2023-06-10T06:37:48;6.70;;;2.50;;
66741;SDS011;53654;54.152;19.432;2023-06-10T06:40:22;4.60;;;2.70;;
66741;SDS011;53654;54.152;19.432;2023-06-10T06:42:50;3.10;;;2.50;;
66741;SDS011;53654;54.152;19.432;2023-06-10T06:45:29;6.20;;;2.50;;
66741;SDS011;53654;54.152;19.432;2023-06-10T06:47:57;3.10;;;2.30;;
66741;SDS011;53654;54.152;19.432;2023-06-10T06:50:26;3.60;;;2.50;;
66741;SDS011;53654;54.152;19.432;2023-06-10T06:52:54;2.80;;;2.60;;
66741;SDS011;53654;54.152;19.432;2023-06-10T06:55:22;3.50;;;2.50;;
66741;SDS011;53654;54.152;19.432;2023-06-10T06:57:50;4.30;;;2.40;;
66741;SDS011;53654;54.152;19.432;2023-06-10T07:00:18;3.20;;;2.30;;
66741;SDS011;53654;54.152;19.432;2023-06-10T07:02:46;4.20;;;2.50;;
66741;SDS011;53654;54.152;19.432;2023-06-10T07:05:15;3.80;;;2.40;;
66741;SDS011;53654;54.152;19.432;2023-06-10T07:07:43;2.60;;;2.40;;
66741;SDS011;53654;54.152;19.432;2023-06-10T07:10:12;3.00;;;2.30;;
66741;SDS011;53654;54.152;19.432;2023-06-10T07:12:40;2.90;;;2.40;;
66741;SDS011;53654;54.152;19.432;2023-06-10T07:15:08;3.10;;;2.60;;
66741;SDS011;53654;54.152;19.432;2023-06-10T07:17:37;3.20;;;2.30;;
66741;SDS011;53654;54.152;19.432;2023-06-10T07:20:05;2.90;;;2.60;;
66741;SDS011;53654;54.152;19.432;2023-06-10T07:22:34;3.90;;;2.50;;
66741;SDS011;53654;54.152;19.432;2023-06-10T07:25:02;4.80;;;2.50;;
66741;SDS011;53654;54.152;19.432;2023-06-10T07:27:30;2.60;;;2.20;;
66741;SDS011;53654;54.152;19.432;2023-06-10T07:29:58;2.50;;;2.30;;
66741;SDS011;53654;54.152;19.432;2023-06-10T07:32:28;2.80;;;2.20;;
66741;SDS011;53654;54.152;19.432;2023-06-10T07:34:56;3.80;;;2.60;;
66741;SDS011;53654;54.152;19.432;2023-06-10T07:37:25;3.90;;;2.30;;
66741;SDS011;53654;54.152;19.432;2023-06-10T07:39:53;2.90;;;2.50;;
66741;SDS011;53654;54.152;19.432;2023-06-10T07:42:21;2.80;;;2.40;;
66741;SDS011;53654;54.152;19.432;2023-06-10T07:44:50;2.80;;;2.30;;
66741;SDS011;53654;54.152;19.432;2023-06-10T07:47:18;2.60;;;2.30;;
66741;SDS011;53654;54.152;19.432;2023-06-10T07:49:46;3.60;;;2.30;;
66741;SDS011;53654;54.152;19.432;2023-06-10T07:52:14;4.10;;;2.30;;
66741;SDS011;53654;54.152;19.432;2023-06-10T07:54:43;4.70;;;2.40;;
66741;SDS011;53654;54.152;19.432;2023-06-10T07:57:11;4.00;;;2.30;;
66741;SDS011;53654;54.152;19.432;2023-06-10T07:59:39;3.70;;;2.50;;
66741;SDS011;53654;54.152;19.432;2023-06-10T08:02:07;4.80;;;2.30;;
66741;SDS011;53654;54.152;19.432;2023-06-10T08:04:35;2.40;;;2.20;;
66741;SDS011;53654;54.152;19.432;2023-06-10T08:07:04;3.00;;;2.40;;
66741;SDS011;53654;54.152;19.432;2023-06-10T08:09:32;4.10;;;2.40;;
66741;SDS011;53654;54.152;19.432;2023-06-10T08:12:01;3.70;;;2.40;;
66741;SDS011;53654;54.152;19.432;2023-06-10T08:14:31;2.70;;;2.20;;
66741;SDS011;53654;54.152;19.432;2023-06-10T08:16:59;4.40;;;2.70;;
66741;SDS011;53654;54.152;19.432;2023-06-10T08:19:27;4.50;;;2.60;;
66741;SDS011;53654;54.152;19.432;2023-06-10T08:21:55;2.60;;;2.40;;
66741;SDS011;53654;54.152;19.432;2023-06-10T08:24:24;4.10;;;2.20;;
66741;SDS011;53654;54.152;19.432;2023-06-10T08:26:52;4.10;;;2.60;;
66741;SDS011;53654;54.152;19.432;2023-06-10T08:29:20;3.70;;;2.80;;
66741;SDS011;53654;54.152;19.432;2023-06-10T08:31:48;3.60;;;2.50;;
66741;SDS011;53654;54.152;19.432;2023-06-10T08:34:17;3.10;;;2.50;;
66741;SDS011;53654;54.152;19.432;2023-06-10T08:36:45;3.30;;;2.60;;
66741;SDS011;53654;54.152;19.432;2023-06-10T08:39:13;4.50;;;2.70;;
66741;SDS011;53654;54.152;19.432;2023-06-10T08:41:43;4.20;;;2.70;;
66741;SDS011;53654;54.152;19.432;2023-06-10T08:44:16;4.20;;;2.50;;
66741;SDS011;53654;54.152;19.432;2023-06-10T08:46:48;3.10;;;2.70;;
66741;SDS011;53654;54.152;19.432;2023-06-10T08:49:18;3.60;;;2.60;;
66741;SDS011;53654;54.152;19.432;2023-06-10T08:51:58;4.60;;;2.90;;
66741;SDS011;53654;54.152;19.432;2023-06-10T08:54:30;2.70;;;2.20;;
66741;SDS011;53654;54.152;19.432;2023-06-10T08:57:02;2.80;;;2.60;;
66741;SDS011;53654;54.152;19.432;2023-06-10T08:59:33;4.10;;;2.50;;
66741;SDS011;53654;54.152;19.432;2023-06-10T09:02:01;4.00;;;2.40;;
66741;SDS011;53654;54.152;19.432;2023-06-10T09:04:32;2.90;;;2.70;;
66741;SDS011;53654;54.152;19.432;2023-06-10T09:07:02;2.70;;;2.40;;
66741;SDS011;53654;54.152;19.432;2023-06-10T09:09:30;3.30;;;2.60;;
66741;SDS011;53654;54.152;19.432;2023-06-10T09:12:00;3.20;;;2.50;;
66741;SDS011;53654;54.152;19.432;2023-06-10T09:14:28;5.00;;;2.50;;
66741;SDS011;53654;54.152;19.432;2023-06-10T09:16:56;2.80;;;2.40;;
66741;SDS011;53654;54.152;19.432;2023-06-10T09:19:25;4.60;;;2.50;;
66741;SDS011;53654;54.152;19.432;2023-06-10T09:21:56;3.40;;;3.10;;
66741;SDS011;53654;54.152;19.432;2023-06-10T09:24:24;3.70;;;2.50;;
66741;SDS011;53654;54.152;19.432;2023-06-10T09:27:03;3.00;;;2.50;;
66741;SDS011;53654;54.152;19.432;2023-06-10T09:29:53;2.80;;;2.50;;
66741;SDS011;53654;54.152;19.432;2023-06-10T09:32:22;4.20;;;2.80;;
66741;SDS011;53654;54.152;19.432;2023-06-10T09:34:51;2.80;;;2.40;;
66741;SDS011;53654;54.152;19.432;2023-06-10T09:37:21;3.00;;;2.70;;
66741;SDS011;53654;54.152;19.432;2023-06-10T09:40:03;4.00;;;2.70;;
66741;SDS011;53654;54.152;19.432;2023-06-10T09:42:34;2.60;;;2.40;;
66741;SDS011;53654;54.152;19.432;2023-06-10T09:45:04;2.50;;;2.30;;
66741;SDS011;53654;54.152;19.432;2023-06-10T09:47:33;2.70;;;2.50;;
66741;SDS011;53654;54.152;19.432;2023-06-10T09:50:01;2.90;;;2.60;;
66741;SDS011;53654;54.152;19.432;2023-06-10T09:52:30;4.00;;;2.40;;
66741;SDS011;53654;54.152;19.432;2023-06-10T09:54:59;2.50;;;2.30;;
66741;SDS011;53654;54.152;19.432;2023-06-10T09:57:32;4.40;;;2.50;;
66741;SDS011;53654;54.152;19.432;2023-06-10T10:00:04;3.10;;;2.60;;
66741;SDS011;53654;54.152;19.432;2023-06-10T10:02:51;5.80;;;2.70;;
66741;SDS011;53654;54.152;19.432;2023-06-10T10:05:22;3.70;;;2.30;;
66741;SDS011;53654;54.152;19.432;2023-06-10T10:07:51;3.10;;;2.50;;
66741;SDS011;53654;54.152;19.432;2023-06-10T10:10:20;2.90;;;2.20;;
66741;SDS011;53654;54.152;19.432;2023-06-10T10:12:55;4.20;;;2.30;;
66741;SDS011;53654;54.152;19.432;2023-06-10T10:15:25;2.60;;;2.40;;
66741;SDS011;53654;54.152;19.432;2023-06-10T10:18:00;3.50;;;2.20;;
66741;SDS011;53654;54.152;19.432;2023-06-10T10:20:46;3.10;;;2.40;;
66741;SDS011;53654;54.152;19.432;2023-06-10T10:23:34;3.00;;;2.40;;
66741;SDS011;53654;54.152;19.432;2023-06-10T10:26:07;3.10;;;2.50;;
66741;SDS011;53654;54.152;19.432;2023-06-10T10:28:41;5.20;;;2.40;;
66741;SDS011;53654;54.152;19.432;2023-06-10T10:31:13;2.90;;;2.40;;
66741;SDS011;53654;54.152;19.432;2023-06-10T10:33:57;2.90;;;2.20;;
66741;SDS011;53654;54.152;19.432;2023-06-10T10:36:27;3.60;;;2.50;;
66741;SDS011;53654;54.152;19.432;2023-06-10T10:38:56;3.10;;;2.20;;
66741;SDS011;53654;54.152;19.432;2023-06-10T10:41:26;4.70;;;2.30;;
66741;SDS011;53654;54.152;19.432;2023-06-10T10:43:55;3.50;;;2.20;;
66741;SDS011;53654;54.152;19.432;2023-06-10T10:46:24;2.50;;;2.10;;
66741;SDS011;53654;54.152;19.432;2023-06-10T10:48:53;2.70;;;2.20;;
66741;SDS011;53654;54.152;19.432;2023-06-10T10:51:22;3.80;;;2.20;;
66741;SDS011;53654;54.152;19.432;2023-06-10T10:54:09;4.20;;;2.20;;
66741;SDS011;53654;54.152;19.432;2023-06-10T10:56:39;2.50;;;2.30;;
66741;SDS011;53654;54.152;19.432;2023-06-10T10:59:07;2.40;;;2.20;;
66741;SDS011;53654;54.152;19.432;2023-06-10T11:01:40;3.60;;;2.10;;
66741;SDS011;53654;54.152;19.432;2023-06-10T11:04:10;3.10;;;2.20;;
66741;SDS011;53654;54.152;19.432;2023-06-10T11:06:38;2.50;;;2.20;;
66741;SDS011;53654;54.152;19.432;2023-06-10T11:09:26;2.90;;;1.90;;
66741;SDS011;53654;54.152;19.432;2023-06-10T11:11:58;2.30;;;2.00;;
66741;SDS011;53654;54.152;19.432;2023-06-10T11:14:28;2.80;;;2.20;;
66741;SDS011;53654;54.152;19.432;2023-06-10T11:16:57;2.70;;;2.10;;
66741;SDS011;53654;54.152;19.432;2023-06-10T11:19:36;3.00;;;1.90;;
66741;SDS011;53654;54.152;19.432;2023-06-10T11:22:07;4.00;;;2.10;;
66741;SDS011;53654;54.152;19.432;2023-06-10T11:24:35;2.60;;;2.30;;
66741;SDS011;53654;54.152;19.432;2023-06-10T11:27:20;3.00;;;1.90;;
66741;SDS011;53654;54.152;19.432;2023-06-10T11:32:49;2.70;;;1.80;;
66741;SDS011;53654;54.152;19.432;2023-06-10T11:35:25;2.60;;;2.00;;
66741;SDS011;53654;54.152;19.432;2023-06-10T11:37:54;4.60;;;2.00;;
66741;SDS011;53654;54.152;19.432;2023-06-10T11:40:22;2.70;;;2.00;;
66741;SDS011;53654;54.152;19.432;2023-06-10T11:42:51;3.30;;;1.90;;
66741;SDS011;53654;54.152;19.432;2023-06-10T11:45:20;2.10;;;1.90;;
66741;SDS011;53654;54.152;19.432;2023-06-10T11:47:58;3.10;;;1.90;;
66741;SDS011;53654;54.152;19.432;2023-06-10T11:50:34;3.80;;;2.00;;
66741;SDS011;53654;54.152;19.432;2023-06-10T11:53:02;3.30;;;1.90;;
66741;SDS011;53654;54.152;19.432;2023-06-10T11:55:43;3.60;;;1.80;;
66741;SDS011;53654;54.152;19.432;2023-06-10T12:00:44;2.20;;;1.70;;
66741;SDS011;53654;54.152;19.432;2023-06-10T12:03:14;3.70;;;2.20;;
66741;SDS011;53654;54.152;19.432;2023-06-10T12:05:59;3.00;;;1.90;;
66741;SDS011;53654;54.152;19.432;2023-06-10T12:08:29;2.10;;;1.90;;
66741;SDS011;53654;54.152;19.432;2023-06-10T12:10:59;3.50;;;1.90;;
66741;SDS011;53654;54.152;19.432;2023-06-10T12:13:29;2.00;;;1.80;;
66741;SDS011;53654;54.152;19.432;2023-06-10T12:16:09;3.30;;;1.80;;
66741;SDS011;53654;54.152;19.432;2023-06-10T12:18:38;2.70;;;2.00;;
66741;SDS011;53654;54.152;19.432;2023-06-10T12:24:05;2.70;;;2.10;;
66741;SDS011;53654;54.152;19.432;2023-06-10T12:26:38;2.80;;;1.70;;
66741;SDS011;53654;54.152;19.432;2023-06-10T12:29:18;3.10;;;1.90;;
66741;SDS011;53654;54.152;19.432;2023-06-10T12:31:55;3.50;;;2.20;;
66741;SDS011;53654;54.152;19.432;2023-06-10T12:34:36;2.90;;;1.90;;
66741;SDS011;53654;54.152;19.432;2023-06-10T12:37:12;2.60;;;2.10;;
66741;SDS011;53654;54.152;19.432;2023-06-10T12:39:43;4.00;;;2.20;;
66741;SDS011;53654;54.152;19.432;2023-06-10T12:42:24;2.90;;;2.20;;
66741;SDS011;53654;54.152;19.432;2023-06-10T12:44:53;3.70;;;2.50;;
66741;SDS011;53654;54.152;19.432;2023-06-10T12:47:28;4.00;;;2.50;;
66741;SDS011;53654;54.152;19.432;2023-06-10T12:50:00;2.50;;;2.20;;
66741;SDS011;53654;54.152;19.432;2023-06-10T12:52:29;2.60;;;2.40;;
66741;SDS011;53654;54.152;19.432;2023-06-10T12:54:58;4.10;;;2.30;;
66741;SDS011;53654;54.152;19.432;2023-06-10T12:57:26;3.10;;;2.30;;
66741;SDS011;53654;54.152;19.432;2023-06-10T12:59:54;6.20;;;2.60;;
66741;SDS011;53654;54.152;19.432;2023-06-10T13:02:28;3.20;;;2.50;;
66741;SDS011;53654;54.152;19.432;2023-06-10T13:04:56;3.60;;;2.10;;
66741;SDS011;53654;54.152;19.432;2023-06-10T13:07:25;2.80;;;2.30;;
66741;SDS011;53654;54.152;19.432;2023-06-10T13:09:53;4.40;;;2.20;;
66741;SDS011;53654;54.152;19.432;2023-06-10T13:12:21;2.60;;;2.40;;
66741;SDS011;53654;54.152;19.432;2023-06-10T13:15:05;2.90;;;2.60;;
66741;SDS011;53654;54.152;19.432;2023-06-10T13:17:34;3.50;;;2.30;;
66741;SDS011;53654;54.152;19.432;2023-06-10T13:20:03;3.20;;;2.50;;
66741;SDS011;53654;54.152;19.432;2023-06-10T13:22:35;3.20;;;2.00;;
66741;SDS011;53654;54.152;19.432;2023-06-10T13:25:04;2.40;;;2.20;;
66741;SDS011;53654;54.152;19.432;2023-06-10T13:27:35;3.90;;;2.00;;
66741;SDS011;53654;54.152;19.432;2023-06-10T13:30:07;3.50;;;2.20;;
66741;SDS011;53654;54.152;19.432;2023-06-10T13:32:37;2.50;;;2.20;;
66741;SDS011;53654;54.152;19.432;2023-06-10T13:35:05;3.30;;;2.20;;
66741;SDS011;53654;54.152;19.432;2023-06-10T13:37:36;4.20;;;2.10;;
66741;SDS011;53654;54.152;19.432;2023-06-10T13:40:06;4.20;;;2.10;;
66741;SDS011;53654;54.152;19.432;2023-06-10T13:42:35;3.30;;;2.00;;
66741;SDS011;53654;54.152;19.432;2023-06-10T13:45:05;3.20;;;1.90;;
66741;SDS011;53654;54.152;19.432;2023-06-10T13:47:34;2.70;;;1.90;;
66741;SDS011;53654;54.152;19.432;2023-06-10T13:50:02;2.40;;;1.90;;
66741;SDS011;53654;54.152;19.432;2023-06-10T13:52:30;3.70;;;1.90;;
66741;SDS011;53654;54.152;19.432;2023-06-10T13:54:58;2.80;;;1.80;;
66741;SDS011;53654;54.152;19.432;2023-06-10T13:57:27;2.70;;;1.80;;
66741;SDS011;53654;54.152;19.432;2023-06-10T13:59:55;4.00;;;1.90;;
66741;SDS011;53654;54.152;19.432;2023-06-10T14:02:24;3.00;;;1.80;;
66741;SDS011;53654;54.152;19.432;2023-06-10T14:04:52;3.90;;;1.90;;
66741;SDS011;53654;54.152;19.432;2023-06-10T14:07:21;2.90;;;1.70;;
66741;SDS011;53654;54.152;19.432;2023-06-10T14:09:49;2.30;;;1.90;;
66741;SDS011;53654;54.152;19.432;2023-06-10T14:12:18;3.00;;;1.70;;
66741;SDS011;53654;54.152;19.432;2023-06-10T14:14:46;3.60;;;1.60;;
66741;SDS011;53654;54.152;19.432;2023-06-10T14:17:15;3.70;;;1.60;;
66741;SDS011;53654;54.152;19.432;2023-06-10T14:19:43;3.90;;;1.90;;
66741;SDS011;53654;54.152;19.432;2023-06-10T14:22:12;4.00;;;2.10;;
66741;SDS011;53654;54.152;19.432;2023-06-10T14:24:40;4.40;;;1.90;;
66741;SDS011;53654;54.152;19.432;2023-06-10T14:27:08;2.20;;;1.70;;
66741;SDS011;53654;54.152;19.432;2023-06-10T14:29:36;3.10;;;1.70;;
66741;SDS011;53654;54.152;19.432;2023-06-10T14:32:05;2.40;;;1.80;;
66741;SDS011;53654;54.152;19.432;2023-06-10T14:34:36;2.70;;;1.90;;
66741;SDS011;53654;54.152;19.432;2023-06-10T14:37:04;3.40;;;1.60;;
66741;SDS011;53654;54.152;19.432;2023-06-10T14:39:35;2.70;;;1.80;;
66741;SDS011;53654;54.152;19.432;2023-06-10T14:42:04;2.80;;;1.90;;
66741;SDS011;53654;54.152;19.432;2023-06-10T14:44:33;3.30;;;1.60;;
66741;SDS011;53654;54.152;19.432;2023-06-10T14:47:01;1.80;;;1.60;;
66741;SDS011;53654;54.152;19.432;2023-06-10T14:49:29;3.80;;;1.90;;
66741;SDS011;53654;54.152;19.432;2023-06-10T14:51:57;4.50;;;1.90;;
66741;SDS011;53654;54.152;19.432;2023-06-10T14:54:26;3.90;;;1.80;;
66741;SDS011;53654;54.152;19.432;2023-06-10T14:56:54;2.80;;;1.90;;
66741;SDS011;53654;54.152;19.432;2023-06-10T14:59:22;1.80;;;1.70;;